Pumpkin Center, California
Current Conditions -  °F | °C
As of 11:54 PM on Tuesday 21 Oct 2014 (Local Time) from KBFL Reporting Station
Clear Clear  
Wind Chill: 62°   Ceiling: Unl
Heat Index: 62°   Visibility: 10mi
Dew Point: 43°   Wind: 0mph
Humidity: 50%   Direction: NA
Pressure: 30.02"   Gusts: NA
Location:  35.2669°N, 119.032°W
Report Text: KBFL 220654Z AUTO 00000KT 10SM CLR 17/06 A3002 RMK AO2 SLP163 T01670061
Loading
Personal Weather Stations






























Interactive Weather Map
Tropical Storm Tracking
New forecast layout! Learn more

10-Day Weather Forecast

Advertisements
Track Severe Weather on mobile